Alabama, New York
Current Conditions -  °F | °C
As of 1:54 PM on Saturday 25 Oct 2014 (Local Time) from KBUF Reporting Station
Broken Clouds Broken Clouds  
Wind Chill: 16°   Ceiling: 8000
Heat Index: 16°   Visibility: 10mi
Dew Point: 10°   Wind: 31mph
Humidity: 69%   Direction: 240°WSW
Pressure: 29.64"   Gusts: 46mph
Location:  43.1°N, 78.39°W
Report Text: KBUF 251754Z 24027G40KT 10SM FEW027 SCT045 BKN080 16/10 A2964 RMK AO2 PK WND 25040/1753 SLP038 T01560100 10167 20117 56029
Loading
Personal Weather Stations






























Interactive Weather Map
Tropical Storm Tracking
New forecast layout! Learn more

10-Day Weather Forecast

Advertisements
Track Severe Weather on mobile